sensor_id;sensor_type;location;lat;lon;timestamp;pressure;altitude;pressure_sealevel;temperature;humidity
48614;BME280;34408;51.426;5.444;2023-08-06T00:01:21;100284.72;;;17.48;67.70
48614;BME280;34408;51.426;5.444;2023-08-06T00:03:49;100282.00;;;17.48;67.98
48614;BME280;34408;51.426;5.444;2023-08-06T00:06:17;100289.03;;;17.49;67.73
48614;BME280;34408;51.426;5.444;2023-08-06T00:08:46;100295.56;;;17.48;67.58
48614;BME280;34408;51.426;5.444;2023-08-06T00:11:14;100290.13;;;17.48;67.43
48614;BME280;34408;51.426;5.444;2023-08-06T00:13:42;100288.22;;;17.48;67.66
48614;BME280;34408;51.426;5.444;2023-08-06T00:16:10;100298.56;;;17.46;67.52
48614;BME280;34408;51.426;5.444;2023-08-06T00:18:39;100286.34;;;17.44;67.40
48614;BME280;34408;51.426;5.444;2023-08-06T00:21:07;100284.97;;;17.46;67.37
48614;BME280;34408;51.426;5.444;2023-08-06T00:23:35;100290.69;;;17.45;67.58
48614;BME280;34408;51.426;5.444;2023-08-06T00:26:04;100284.97;;;17.46;67.82
48614;BME280;34408;51.426;5.444;2023-08-06T00:28:32;100283.38;;;17.45;67.67
48614;BME280;34408;51.426;5.444;2023-08-06T00:31:00;100279.03;;;17.44;67.66
48614;BME280;34408;51.426;5.444;2023-08-06T00:33:27;100281.75;;;17.44;67.91
48614;BME280;34408;51.426;5.444;2023-08-06T00:35:55;100281.75;;;17.44;67.66
48614;BME280;34408;51.426;5.444;2023-08-06T00:38:23;100279.03;;;17.44;67.55
48614;BME280;34408;51.426;5.444;2023-08-06T00:40:51;100280.13;;;17.43;67.57
48614;BME280;34408;51.426;5.444;2023-08-06T00:43:21;100277.41;;;17.43;67.81
48614;BME280;34408;51.426;5.444;2023-08-06T00:45:49;100274.69;;;17.43;67.70
48614;BME280;34408;51.426;5.444;2023-08-06T00:48:17;100271.16;;;17.43;67.60
48614;BME280;34408;51.426;5.444;2023-08-06T00:50:45;100274.97;;;17.42;67.80
48614;BME280;34408;51.426;5.444;2023-08-06T00:53:13;100268.72;;;17.41;67.99
48614;BME280;34408;51.426;5.444;2023-08-06T00:55:42;100268.72;;;17.41;67.61
48614;BME280;34408;51.426;5.444;2023-08-06T00:58:12;100271.72;;;17.40;67.82
48614;BME280;34408;51.426;5.444;2023-08-06T01:00:41;100270.91;;;17.39;67.89
48614;BME280;34408;51.426;5.444;2023-08-06T01:03:09;100264.66;;;17.39;68.01
48614;BME280;34408;51.426;5.444;2023-08-06T01:05:37;100267.38;;;17.39;68.11
48614;BME280;34408;51.426;5.444;2023-08-06T01:08:15;100263.84;;;17.38;68.00
48614;BME280;34408;51.426;5.444;2023-08-06T01:10:54;100266.56;;;17.38;68.28
48614;BME280;34408;51.426;5.444;2023-08-06T01:13:31;100267.66;;;17.37;68.36
48614;BME280;34408;51.426;5.444;2023-08-06T01:16:03;100257.06;;;17.36;68.41
48614;BME280;34408;51.426;5.444;2023-08-06T01:18:32;100259.78;;;17.36;68.34
48614;BME280;34408;51.426;5.444;2023-08-06T01:21:01;100267.94;;;17.36;68.23
48614;BME280;34408;51.426;5.444;2023-08-06T01:23:29;100267.13;;;17.35;68.31
48614;BME280;34408;51.426;5.444;2023-08-06T01:26:05;100269.84;;;17.35;68.47
48614;BME280;34408;51.426;5.444;2023-08-06T01:28:44;100263.59;;;17.35;68.09
48614;BME280;34408;51.426;5.444;2023-08-06T01:31:20;100265.50;;;17.34;68.18
48614;BME280;34408;51.426;5.444;2023-08-06T01:33:49;100260.06;;;17.34;68.37
48614;BME280;34408;51.426;5.444;2023-08-06T01:36:20;100258.97;;;17.35;68.48
48614;BME280;34408;51.426;5.444;2023-08-06T01:38:48;100261.19;;;17.33;68.49
48614;BME280;34408;51.426;5.444;2023-08-06T01:41:16;100264.69;;;17.34;68.38
48614;BME280;34408;51.426;5.444;2023-08-06T01:43:44;100260.38;;;17.33;68.47
48614;BME280;34408;51.426;5.444;2023-08-06T01:46:12;100257.66;;;17.33;68.62
48614;BME280;34408;51.426;5.444;2023-08-06T01:48:39;100252.50;;;17.31;68.62
48614;BME280;34408;51.426;5.444;2023-08-06T01:51:07;100256.03;;;17.32;68.52
48614;BME280;34408;51.426;5.444;2023-08-06T01:53:36;100263.38;;;17.31;68.46
48614;BME280;34408;51.426;5.444;2023-08-06T01:56:04;100261.47;;;17.32;68.61
48614;BME280;34408;51.426;5.444;2023-08-06T01:58:32;100259.56;;;17.32;68.62
48614;BME280;34408;51.426;5.444;2023-08-06T02:01:00;100254.94;;;17.33;68.64
48614;BME280;34408;51.426;5.444;2023-08-06T02:03:28;100266.63;;;17.33;68.59
48614;BME280;34408;51.426;5.444;2023-08-06T02:05:56;100262.28;;;17.32;68.71
48614;BME280;34408;51.426;5.444;2023-08-06T02:08:24;100263.38;;;17.31;68.84
48614;BME280;34408;51.426;5.444;2023-08-06T02:10:53;100258.75;;;17.32;68.69
48614;BME280;34408;51.426;5.444;2023-08-06T02:13:21;100261.47;;;17.32;68.81
48614;BME280;34408;51.426;5.444;2023-08-06T02:15:49;100257.13;;;17.31;68.89
48614;BME280;34408;51.426;5.444;2023-08-06T02:18:16;100260.66;;;17.31;68.73
48614;BME280;34408;51.426;5.444;2023-08-06T02:20:54;100260.66;;;17.31;68.73
48614;BME280;34408;51.426;5.444;2023-08-06T02:23:23;100253.59;;;17.30;68.96
48614;BME280;34408;51.426;5.444;2023-08-06T02:25:58;100255.50;;;17.30;69.08
48614;BME280;34408;51.426;5.444;2023-08-06T02:28:26;100260.13;;;17.29;69.02
48614;BME280;34408;51.426;5.444;2023-08-06T02:30:54;100258.50;;;17.28;69.16
48614;BME280;34408;51.426;5.444;2023-08-06T02:33:22;100259.31;;;17.29;69.24
48614;BME280;34408;51.426;5.444;2023-08-06T02:35:50;100249.53;;;17.28;69.19
48614;BME280;34408;51.426;5.444;2023-08-06T02:38:18;100253.06;;;17.28;69.04
48614;BME280;34408;51.426;5.444;2023-08-06T02:40:46;100254.97;;;17.28;69.11
48614;BME280;34408;51.426;5.444;2023-08-06T02:43:15;100256.06;;;17.27;68.85
48614;BME280;34408;51.426;5.444;2023-08-06T02:45:42;100254.44;;;17.26;69.14
48614;BME280;34408;51.426;5.444;2023-08-06T02:48:10;100254.44;;;17.26;69.15
48614;BME280;34408;51.426;5.444;2023-08-06T02:50:39;100246.59;;;17.24;69.07
48614;BME280;34408;51.426;5.444;2023-08-06T02:53:07;100243.88;;;17.24;69.20
48614;BME280;34408;51.426;5.444;2023-08-06T02:55:36;100254.72;;;17.24;69.22
48614;BME280;34408;51.426;5.444;2023-08-06T02:58:03;100243.06;;;17.23;69.41
48614;BME280;34408;51.426;5.444;2023-08-06T03:00:33;100243.34;;;17.22;69.29
48614;BME280;34408;51.426;5.444;2023-08-06T03:03:00;100247.94;;;17.21;69.40
48614;BME280;34408;51.426;5.444;2023-08-06T03:05:28;100247.94;;;17.21;69.28
48614;BME280;34408;51.426;5.444;2023-08-06T03:07:56;100243.63;;;17.20;69.40
48614;BME280;34408;51.426;5.444;2023-08-06T03:10:24;100242.53;;;17.21;69.34
48614;BME280;34408;51.426;5.444;2023-08-06T03:12:51;100240.09;;;17.20;69.38
48614;BME280;34408;51.426;5.444;2023-08-06T03:15:19;100236.56;;;17.19;69.36
48614;BME280;34408;51.426;5.444;2023-08-06T03:17:48;100244.69;;;17.19;69.31
48614;BME280;34408;51.426;5.444;2023-08-06T03:20:16;100238.47;;;17.19;69.54
48614;BME280;34408;51.426;5.444;2023-08-06T03:22:44;100243.09;;;17.18;69.51
48614;BME280;34408;51.426;5.444;2023-08-06T03:25:12;100251.22;;;17.18;69.40
48614;BME280;34408;51.426;5.444;2023-08-06T03:27:39;100240.66;;;17.17;69.47
48614;BME280;34408;51.426;5.444;2023-08-06T03:30:08;100247.69;;;17.18;69.40
48614;BME280;34408;51.426;5.444;2023-08-06T03:32:36;100241.75;;;17.16;69.45
48614;BME280;34408;51.426;5.444;2023-08-06T03:35:06;100255.03;;;17.17;69.46
48614;BME280;34408;51.426;5.444;2023-08-06T03:37:34;100246.06;;;17.17;69.44
48614;BME280;34408;51.426;5.444;2023-08-06T03:40:02;100246.06;;;17.17;69.70
48614;BME280;34408;51.426;5.444;2023-08-06T03:42:30;100247.16;;;17.16;69.55
48614;BME280;34408;51.426;5.444;2023-08-06T03:44:58;100247.97;;;17.16;69.64
48614;BME280;34408;51.426;5.444;2023-08-06T03:47:25;100251.78;;;17.15;69.54
48614;BME280;34408;51.426;5.444;2023-08-06T03:49:53;100249.06;;;17.15;69.35
48614;BME280;34408;51.426;5.444;2023-08-06T03:52:22;100248.25;;;17.15;69.53
48614;BME280;34408;51.426;5.444;2023-08-06T03:54:50;100257.22;;;17.15;69.78
48614;BME280;34408;51.426;5.444;2023-08-06T03:57:18;100248.25;;;17.15;69.59
48614;BME280;34408;51.426;5.444;2023-08-06T03:59:46;100252.88;;;17.14;69.56
48614;BME280;34408;51.426;5.444;2023-08-06T04:02:20;100252.06;;;17.14;69.52
48614;BME280;34408;51.426;5.444;2023-08-06T04:04:48;100252.06;;;17.14;69.56
48614;BME280;34408;51.426;5.444;2023-08-06T04:07:16;100261.31;;;17.13;69.62
48614;BME280;34408;51.426;5.444;2023-08-06T04:09:57;100258.59;;;17.13;69.54
48614;BME280;34408;51.426;5.444;2023-08-06T04:12:25;100259.41;;;17.13;69.63
48614;BME280;34408;51.426;5.444;2023-08-06T04:14:53;100252.34;;;17.12;69.75
48614;BME280;34408;51.426;5.444;2023-08-06T04:17:22;100264.03;;;17.13;69.56
48614;BME280;34408;51.426;5.444;2023-08-06T04:19:51;100266.72;;;17.13;69.70
48614;BME280;34408;51.426;5.444;2023-08-06T04:22:19;100270.53;;;17.12;69.55
48614;BME280;34408;51.426;5.444;2023-08-06T04:24:48;100269.44;;;17.13;69.68
48614;BME280;34408;51.426;5.444;2023-08-06T04:27:18;100263.75;;;17.09;69.59
48614;BME280;34408;51.426;5.444;2023-08-06T04:29:46;100272.44;;;17.11;69.68
48614;BME280;34408;51.426;5.444;2023-08-06T04:32:14;100277.88;;;17.11;69.65
48614;BME280;34408;51.426;5.444;2023-08-06T04:34:42;100277.88;;;17.11;69.58
48614;BME280;34408;51.426;5.444;2023-08-06T04:37:09;100275.16;;;17.11;69.72
48614;BME280;34408;51.426;5.444;2023-08-06T04:39:37;100278.16;;;17.10;69.63
48614;BME280;34408;51.426;5.444;2023-08-06T04:42:06;100282.78;;;17.09;69.79
48614;BME280;34408;51.426;5.444;2023-08-06T04:44:35;100282.25;;;17.07;69.79
48614;BME280;34408;51.426;5.444;2023-08-06T04:47:03;100282.25;;;17.07;69.78
48614;BME280;34408;51.426;5.444;2023-08-06T04:49:31;100284.94;;;17.07;69.84
48614;BME280;34408;51.426;5.444;2023-08-06T04:51:59;100288.47;;;17.08;69.65
48614;BME280;34408;51.426;5.444;2023-08-06T04:54:26;100288.47;;;17.08;69.53
48614;BME280;34408;51.426;5.444;2023-08-06T04:56:54;100290.09;;;17.09;69.77
48614;BME280;34408;51.426;5.444;2023-08-06T04:59:22;100293.09;;;17.07;69.65
48614;BME280;34408;51.426;5.444;2023-08-06T05:01:51;100298.53;;;17.07;69.72
48614;BME280;34408;51.426;5.444;2023-08-06T05:04:19;100296.63;;;17.08;69.89
48614;BME280;34408;51.426;5.444;2023-08-06T05:06:48;100301.53;;;17.06;69.87
48614;BME280;34408;51.426;5.444;2023-08-06T05:09:15;100303.16;;;17.07;69.69
48614;BME280;34408;51.426;5.444;2023-08-06T05:11:43;100304.50;;;17.04;69.69
48614;BME280;34408;51.426;5.444;2023-08-06T05:14:11;100303.44;;;17.05;69.94
48614;BME280;34408;51.426;5.444;2023-08-06T05:16:39;100306.41;;;17.04;70.23
48614;BME280;34408;51.426;5.444;2023-08-06T05:19:08;100312.38;;;17.06;69.87
48614;BME280;34408;51.426;5.444;2023-08-06T05:21:36;100309.94;;;17.04;69.95
48614;BME280;34408;51.426;5.444;2023-08-06T05:24:04;100317.00;;;17.05;69.95
48614;BME280;34408;51.426;5.444;2023-08-06T05:26:31;100314.28;;;17.05;70.05
48614;BME280;34408;51.426;5.444;2023-08-06T05:29:00;100321.63;;;17.05;70.18
48614;BME280;34408;51.426;5.444;2023-08-06T05:31:28;100320.00;;;17.04;70.33
48614;BME280;34408;51.426;5.444;2023-08-06T05:33:56;100319.19;;;17.03;70.59
48614;BME280;34408;51.426;5.444;2023-08-06T05:36:25;100325.69;;;17.02;70.54
48614;BME280;34408;51.426;5.444;2023-08-06T05:38:55;100331.13;;;17.02;70.48
48614;BME280;34408;51.426;5.444;2023-08-06T05:41:23;100330.31;;;17.02;70.80
48614;BME280;34408;51.426;5.444;2023-08-06T05:43:51;100331.94;;;17.03;70.64
48614;BME280;34408;51.426;5.444;2023-08-06T05:46:18;100343.88;;;17.02;70.34
48614;BME280;34408;51.426;5.444;2023-08-06T05:48:46;100340.38;;;17.01;70.60
48614;BME280;34408;51.426;5.444;2023-08-06T05:51:14;100344.97;;;17.01;70.54
48614;BME280;34408;51.426;5.444;2023-08-06T05:53:44;100345.78;;;17.01;70.86
48614;BME280;34408;51.426;5.444;2023-08-06T05:56:13;100350.41;;;17.01;70.75
48614;BME280;34408;51.426;5.444;2023-08-06T05:58:41;100355.84;;;17.01;70.85
48614;BME280;34408;51.426;5.444;2023-08-06T06:01:09;100352.59;;;16.99;70.77
48614;BME280;34408;51.426;5.444;2023-08-06T06:03:37;100363.97;;;17.01;71.09
48614;BME280;34408;51.426;5.444;2023-08-06T06:06:05;100370.50;;;17.00;70.72
48614;BME280;34408;51.426;5.444;2023-08-06T06:08:32;100366.69;;;17.01;70.82
48614;BME280;34408;51.426;5.444;2023-08-06T06:11:02;100368.59;;;17.00;70.93
48614;BME280;34408;51.426;5.444;2023-08-06T06:13:29;100369.69;;;16.99;70.87
48614;BME280;34408;51.426;5.444;2023-08-06T06:15:57;100375.13;;;16.99;71.03
48614;BME280;34408;51.426;5.444;2023-08-06T06:18:25;100381.34;;;17.00;71.08
48614;BME280;34408;51.426;5.444;2023-08-06T06:20:53;100384.06;;;17.00;71.30
48614;BME280;34408;51.426;5.444;2023-08-06T06:23:21;100383.00;;;17.01;71.18
48614;BME280;34408;51.426;5.444;2023-08-06T06:25:49;100395.47;;;17.02;71.15
48614;BME280;34408;51.426;5.444;2023-08-06T06:28:19;100387.06;;;16.98;70.99
48614;BME280;34408;51.426;5.444;2023-08-06T06:30:47;100400.09;;;17.01;71.26
48614;BME280;34408;51.426;5.444;2023-08-06T06:33:15;100402.00;;;17.01;71.55
48614;BME280;34408;51.426;5.444;2023-08-06T06:35:43;100409.59;;;16.99;71.59
48614;BME280;34408;51.426;5.444;2023-08-06T06:38:11;100413.94;;;17.00;71.72
48614;BME280;34408;51.426;5.444;2023-08-06T06:40:39;100424.81;;;17.00;71.75
48614;BME280;34408;51.426;5.444;2023-08-06T06:43:06;100422.34;;;16.98;71.82
48614;BME280;34408;51.426;5.444;2023-08-06T06:45:35;100423.44;;;16.97;71.61
48614;BME280;34408;51.426;5.444;2023-08-06T06:48:04;100428.06;;;16.97;71.80
48614;BME280;34408;51.426;5.444;2023-08-06T06:50:32;100438.91;;;16.97;72.07
48614;BME280;34408;51.426;5.444;2023-08-06T06:52:59;100441.09;;;16.95;71.83
48614;BME280;34408;51.426;5.444;2023-08-06T06:55:27;100443.53;;;16.91;71.51
48614;BME280;34408;51.426;5.444;2023-08-06T06:57:55;100441.66;;;16.86;71.18
48614;BME280;34408;51.426;5.444;2023-08-06T07:00:23;100444.38;;;16.81;70.95
48614;BME280;34408;51.426;5.444;2023-08-06T07:02:52;100454.97;;;16.78;70.88
48614;BME280;34408;51.426;5.444;2023-08-06T07:05:20;100453.06;;;16.73;70.77
48614;BME280;34408;51.426;5.444;2023-08-06T07:07:47;100457.13;;;16.71;70.50
48614;BME280;34408;51.426;5.444;2023-08-06T07:10:15;100455.78;;;16.68;70.55
48614;BME280;34408;51.426;5.444;2023-08-06T07:12:43;100479.91;;;16.65;70.29
48614;BME280;34408;51.426;5.444;2023-08-06T07:15:11;100466.59;;;16.63;70.36
48614;BME280;34408;51.426;5.444;2023-08-06T07:17:39;100473.09;;;16.62;70.22
48614;BME280;34408;51.426;5.444;2023-08-06T07:20:08;100481.50;;;16.60;70.18
48614;BME280;34408;51.426;5.444;2023-08-06T07:22:36;100497.53;;;16.57;70.10
48614;BME280;34408;51.426;5.444;2023-08-06T07:25:04;100493.72;;;16.53;70.26
48614;BME280;34408;51.426;5.444;2023-08-06T07:27:32;100494.81;;;16.52;70.33
48614;BME280;34408;51.426;5.444;2023-08-06T07:30:00;100502.94;;;16.52;70.44
48614;BME280;34408;51.426;5.444;2023-08-06T07:32:28;100496.69;;;16.51;70.41
48614;BME280;34408;51.426;5.444;2023-08-06T07:34:56;100502.13;;;16.51;70.46
48614;BME280;34408;51.426;5.444;2023-08-06T07:37:28;100507.56;;;16.51;70.53
48614;BME280;34408;51.426;5.444;2023-08-06T07:39:56;100532.22;;;16.50;70.64
48614;BME280;34408;51.426;5.444;2023-08-06T07:42:24;100512.69;;;16.48;70.69
48614;BME280;34408;51.426;5.444;2023-08-06T07:44:54;100526.81;;;16.45;70.92
48614;BME280;34408;51.426;5.444;2023-08-06T07:47:22;100531.69;;;16.43;71.02
48614;BME280;34408;51.426;5.444;2023-08-06T07:49:50;100530.84;;;16.37;71.27
48614;BME280;34408;51.426;5.444;2023-08-06T07:52:18;100538.47;;;16.40;71.05
48614;BME280;34408;51.426;5.444;2023-08-06T07:54:47;100540.06;;;16.36;71.17
48614;BME280;34408;51.426;5.444;2023-08-06T07:57:15;100536.81;;;16.34;71.34
48614;BME280;34408;51.426;5.444;2023-08-06T07:59:43;100546.03;;;16.33;71.31
48614;BME280;34408;51.426;5.444;2023-08-06T08:02:11;100541.97;;;16.31;71.69
48614;BME280;34408;51.426;5.444;2023-08-06T08:04:38;100552.81;;;16.31;71.56
48614;BME280;34408;51.426;5.444;2023-08-06T08:07:06;100548.19;;;16.31;71.74
48614;BME280;34408;51.426;5.444;2023-08-06T08:09:34;100548.72;;;16.28;72.08
48614;BME280;34408;51.426;5.444;2023-08-06T08:12:04;100544.94;;;16.29;71.81
48614;BME280;34408;51.426;5.444;2023-08-06T08:14:32;100551.72;;;16.32;71.86
48614;BME280;34408;51.426;5.444;2023-08-06T08:17:02;100554.44;;;16.32;72.08
48614;BME280;34408;51.426;5.444;2023-08-06T08:19:30;100546.28;;;16.32;72.02
48614;BME280;34408;51.426;5.444;2023-08-06T08:21:58;100559.03;;;16.31;72.07
48614;BME280;34408;51.426;5.444;2023-08-06T08:24:26;100557.16;;;16.32;72.32
48614;BME280;34408;51.426;5.444;2023-08-06T08:26:54;100563.13;;;16.34;72.39
48614;BME280;34408;51.426;5.444;2023-08-06T08:29:23;100569.09;;;16.36;72.41
48614;BME280;34408;51.426;5.444;2023-08-06T08:31:51;100576.16;;;16.37;72.35
48614;BME280;34408;51.426;5.444;2023-08-06T08:34:19;100578.03;;;16.36;72.31
48614;BME280;34408;51.426;5.444;2023-08-06T08:36:47;100571.81;;;16.36;72.28
48614;BME280;34408;51.426;5.444;2023-08-06T08:39:16;100573.69;;;16.35;72.45
48614;BME280;34408;51.426;5.444;2023-08-06T08:41:44;100578.03;;;16.36;72.32
48614;BME280;34408;51.426;5.444;2023-08-06T08:44:13;100575.31;;;16.36;72.19
48614;BME280;34408;51.426;5.444;2023-08-06T08:46:46;100583.47;;;16.36;72.07
48614;BME280;34408;51.426;5.444;2023-08-06T08:49:15;100585.38;;;16.36;72.00
48614;BME280;34408;51.426;5.444;2023-08-06T08:51:45;100588.88;;;16.36;72.09
48614;BME280;34408;51.426;5.444;2023-08-06T08:54:13;100586.44;;;16.35;71.98
48614;BME280;34408;51.426;5.444;2023-08-06T08:56:43;100587.25;;;16.35;71.90
48614;BME280;34408;51.426;5.444;2023-08-06T08:59:11;100588.88;;;16.36;71.90
48614;BME280;34408;51.426;5.444;2023-08-06T09:01:40;100589.72;;;16.37;72.04
48614;BME280;34408;51.426;5.444;2023-08-06T09:04:11;100601.38;;;16.37;71.94
48614;BME280;34408;51.426;5.444;2023-08-06T09:06:41;100601.38;;;16.37;71.88
48614;BME280;34408;51.426;5.444;2023-08-06T09:09:12;100601.38;;;16.37;71.85
48614;BME280;34408;51.426;5.444;2023-08-06T09:11:43;100601.38;;;16.37;71.91
48614;BME280;34408;51.426;5.444;2023-08-06T09:14:11;100606.78;;;16.37;72.01
48614;BME280;34408;51.426;5.444;2023-08-06T09:16:39;100618.47;;;16.38;71.99
48614;BME280;34408;51.426;5.444;2023-08-06T09:19:08;100623.88;;;16.38;72.07
48614;BME280;34408;51.426;5.444;2023-08-06T09:21:39;100620.09;;;16.39;72.24
48614;BME280;34408;51.426;5.444;2023-08-06T09:24:07;100627.41;;;16.38;72.15
48614;BME280;34408;51.426;5.444;2023-08-06T09:26:37;100630.69;;;16.40;72.01
48614;BME280;34408;51.426;5.444;2023-08-06T09:29:05;100640.72;;;16.40;72.18
48614;BME280;34408;51.426;5.444;2023-08-06T09:31:40;100640.44;;;16.41;72.08
48614;BME280;34408;51.426;5.444;2023-08-06T09:34:11;100646.69;;;16.42;72.13
48614;BME280;34408;51.426;5.444;2023-08-06T09:36:42;100642.91;;;16.43;72.09
48614;BME280;34408;51.426;5.444;2023-08-06T09:39:13;100654.56;;;16.43;72.03
48614;BME280;34408;51.426;5.444;2023-08-06T09:41:42;100649.13;;;16.43;71.86
48614;BME280;34408;51.426;5.444;2023-08-06T09:44:15;100654.03;;;16.46;72.09
48614;BME280;34408;51.426;5.444;2023-08-06T09:46:47;100651.03;;;16.43;71.82
48614;BME280;34408;51.426;5.444;2023-08-06T09:49:15;100670.31;;;16.46;71.84
48614;BME280;34408;51.426;5.444;2023-08-06T09:51:44;100667.84;;;16.45;71.88
48614;BME280;34408;51.426;5.444;2023-08-06T09:54:13;100675.47;;;16.48;71.88
48614;BME280;34408;51.426;5.444;2023-08-06T09:56:54;100676.53;;;16.47;71.91
48614;BME280;34408;51.426;5.444;2023-08-06T09:59:23;100671.13;;;16.47;71.92
48614;BME280;34408;51.426;5.444;2023-08-06T10:01:51;100675.72;;;16.46;71.79
48614;BME280;34408;51.426;5.444;2023-08-06T10:04:19;100675.72;;;16.46;71.91
48614;BME280;34408;51.426;5.444;2023-08-06T10:06:53;100687.41;;;16.47;72.06
48614;BME280;34408;51.426;5.444;2023-08-06T10:09:22;100682.78;;;16.47;71.99
48614;BME280;34408;51.426;5.444;2023-08-06T10:11:51;100687.13;;;16.48;72.09
48614;BME280;34408;51.426;5.444;2023-08-06T10:14:23;100685.50;;;16.47;72.14
48614;BME280;34408;51.426;5.444;2023-08-06T10:16:53;100693.63;;;16.47;71.84
48614;BME280;34408;51.426;5.444;2023-08-06T10:19:22;100691.75;;;16.48;72.03
48614;BME280;34408;51.426;5.444;2023-08-06T10:22:11;100687.41;;;16.47;72.09
48614;BME280;34408;51.426;5.444;2023-08-06T10:24:50;100685.50;;;16.47;72.34
48614;BME280;34408;51.426;5.444;2023-08-06T10:27:29;100693.91;;;16.46;72.25
48614;BME280;34408;51.426;5.444;2023-08-06T10:30:22;100691.44;;;16.44;72.25
48614;BME280;34408;51.426;5.444;2023-08-06T10:32:51;100696.06;;;16.44;72.36
48614;BME280;34408;51.426;5.444;2023-08-06T10:35:30;100689.56;;;16.45;72.50
48614;BME280;34408;51.426;5.444;2023-08-06T10:38:02;100691.19;;;16.46;72.46
48614;BME280;34408;51.426;5.444;2023-08-06T10:40:31;100696.34;;;16.47;72.54
48614;BME280;34408;51.426;5.444;2023-08-06T10:43:00;100691.75;;;16.48;72.53
48614;BME280;34408;51.426;5.444;2023-08-06T10:45:28;100695.53;;;16.47;72.59
48614;BME280;34408;51.426;5.444;2023-08-06T10:47:57;100701.25;;;16.50;72.49
48614;BME280;34408;51.426;5.444;2023-08-06T10:50:25;100695.00;;;16.50;72.54
48614;BME280;34408;51.426;5.444;2023-08-06T10:52:53;100698.53;;;16.50;72.50
48614;BME280;34408;51.426;5.444;2023-08-06T10:55:27;100698.53;;;16.50;72.38
48614;BME280;34408;51.426;5.444;2023-08-06T10:57:56;100702.06;;;16.51;72.62
48614;BME280;34408;51.426;5.444;2023-08-06T11:00:25;100703.97;;;16.50;72.57
48614;BME280;34408;51.426;5.444;2023-08-06T11:02:53;100706.41;;;16.52;72.66
48614;BME280;34408;51.426;5.444;2023-08-06T11:05:21;100710.19;;;16.51;72.64
48614;BME280;34408;51.426;5.444;2023-08-06T11:07:49;100709.13;;;16.52;72.75
48614;BME280;34408;51.426;5.444;2023-08-06T11:10:19;100714.00;;;16.50;72.72
48614;BME280;34408;51.426;5.444;2023-08-06T11:12:48;100710.47;;;16.49;72.71
48614;BME280;34408;51.426;5.444;2023-08-06T11:15:15;100715.06;;;16.49;72.88
48614;BME280;34408;51.426;5.444;2023-08-06T11:17:43;100721.06;;;16.51;73.11
48614;BME280;34408;51.426;5.444;2023-08-06T11:20:11;100714.00;;;16.50;73.12
48614;BME280;34408;51.426;5.444;2023-08-06T11:22:43;100714.00;;;16.50;73.21
48614;BME280;34408;51.426;5.444;2023-08-06T11:25:10;100723.75;;;16.51;73.22
48614;BME280;34408;51.426;5.444;2023-08-06T11:27:38;100715.88;;;16.49;72.98
48614;BME280;34408;51.426;5.444;2023-08-06T11:30:10;100717.78;;;16.49;73.13
48614;BME280;34408;51.426;5.444;2023-08-06T11:32:45;100716.16;;;16.48;73.31
48614;BME280;34408;51.426;5.444;2023-08-06T11:35:14;100720.25;;;16.50;73.42
48614;BME280;34408;51.426;5.444;2023-08-06T11:37:44;100717.25;;;16.52;73.32
48614;BME280;34408;51.426;5.444;2023-08-06T11:40:14;100716.19;;;16.53;73.28
48614;BME280;34408;51.426;5.444;2023-08-06T11:42:42;100719.72;;;16.53;73.06
48614;BME280;34408;51.426;5.444;2023-08-06T11:45:11;100725.94;;;16.54;73.09
48614;BME280;34408;51.426;5.444;2023-08-06T11:47:39;100717.22;;;16.47;73.17
48614;BME280;34408;51.426;5.444;2023-08-06T11:50:08;100721.06;;;16.56;73.20
48614;BME280;34408;51.426;5.444;2023-08-06T11:52:39;100729.22;;;16.56;73.07
48614;BME280;34408;51.426;5.444;2023-08-06T11:55:09;100722.97;;;16.55;73.09
48614;BME280;34408;51.426;5.444;2023-08-06T11:57:38;100725.41;;;16.57;72.99
48614;BME280;34408;51.426;5.444;2023-08-06T12:00:08;100723.53;;;16.57;73.03
48614;BME280;34408;51.426;5.444;2023-08-06T12:02:38;100730.03;;;16.56;73.02
48614;BME280;34408;51.426;5.444;2023-08-06T12:05:12;100728.13;;;16.57;72.85
48614;BME280;34408;51.426;5.444;2023-08-06T12:07:41;100723.78;;;16.56;72.86
48614;BME280;34408;51.426;5.444;2023-08-06T12:10:09;100729.78;;;16.58;72.86
48614;BME280;34408;51.426;5.444;2023-08-06T12:12:37;100733.31;;;16.58;72.72
48614;BME280;34408;51.426;5.444;2023-08-06T12:15:06;100733.31;;;16.58;72.84
48614;BME280;34408;51.426;5.444;2023-08-06T12:17:34;100744.16;;;16.58;72.81
48614;BME280;34408;51.426;5.444;2023-08-06T12:20:05;100744.16;;;16.58;72.77
48614;BME280;34408;51.426;5.444;2023-08-06T12:22:34;100743.34;;;16.58;72.92
48614;BME280;34408;51.426;5.444;2023-08-06T12:25:03;100746.31;;;16.56;72.71
48614;BME280;34408;51.426;5.444;2023-08-06T12:27:33;100754.72;;;16.55;72.81
48614;BME280;34408;51.426;5.444;2023-08-06T12:30:01;100749.28;;;16.55;72.72
48614;BME280;34408;51.426;5.444;2023-08-06T12:32:30;100756.06;;;16.52;72.88
48614;BME280;34408;51.426;5.444;2023-08-06T12:34:58;100753.09;;;16.54;72.50
48614;BME280;34408;51.426;5.444;2023-08-06T12:37:28;100752.25;;;16.53;72.56
48614;BME280;34408;51.426;5.444;2023-08-06T12:39:56;100758.50;;;16.54;72.75
48614;BME280;34408;51.426;5.444;2023-08-06T12:42:24;100758.78;;;16.52;72.64
48614;BME280;34408;51.426;5.444;2023-08-06T12:44:52;100761.47;;;16.52;72.43
48614;BME280;34408;51.426;5.444;2023-08-06T12:47:20;100765.84;;;16.53;72.42
48614;BME280;34408;51.426;5.444;2023-08-06T12:49:47;100765.00;;;16.53;72.47
48614;BME280;34408;51.426;5.444;2023-08-06T12:52:16;100760.66;;;16.52;72.39
48614;BME280;34408;51.426;5.444;2023-08-06T12:54:47;100764.19;;;16.52;72.37
48614;BME280;34408;51.426;5.444;2023-08-06T12:57:15;100767.72;;;16.53;72.43
48614;BME280;34408;51.426;5.444;2023-08-06T12:59:43;100768.81;;;16.52;72.30